Time;durP1;ratioP1;P1;durP2;ratioP2;P2;SDS_P1;SDS_P2;PMS_P1;PMS_P2;Temp;Humidity;BMP_temperature;BMP_pressure;BME280_temperature;BME280_humidity;BME280_pressure;Samples;Min_cycle;Max_cycle;Signal;HPM_P1;HPM_P2
2021/09/05 00:02:23;;;;;;;34.57;23.13;;;14.70;99.90;;;;;;5049310;28;20230;-65
2021/09/05 00:04:48;;;;;;;36.20;23.37;;;14.70;99.90;;;;;;5045157;28;20243;-65
2021/09/05 00:07:14;;;;;;;42.13;26.27;;;14.70;99.90;;;;;;5031758;28;20183;-65
2021/09/05 00:09:41;;;;;;;43.60;23.90;;;14.60;99.90;;;;;;5037342;28;20175;-65
2021/09/05 00:12:07;;;;;;;37.60;24.40;;;14.60;99.90;;;;;;5040566;28;20203;-65
2021/09/05 00:14:33;;;;;;;39.63;25.60;;;14.60;99.90;;;;;;5032706;28;20182;-65
2021/09/05 00:16:59;;;;;;;39.50;24.00;;;14.50;99.90;;;;;;5031775;28;20171;-65
2021/09/05 00:19:24;;;;;;;39.47;24.17;;;14.50;99.90;;;;;;5039491;28;20241;-65
2021/09/05 00:21:50;;;;;;;39.40;26.13;;;14.40;99.90;;;;;;5031651;28;20199;-65
2021/09/05 00:24:16;;;;;;;46.87;25.60;;;14.50;99.90;;;;;;5035778;28;20179;-65
2021/09/05 00:26:42;;;;;;;41.70;24.80;;;14.30;99.90;;;;;;5038920;28;20641;-65
2021/09/05 00:29:08;;;;;;;36.27;23.33;;;14.30;99.90;;;;;;5031801;28;20629;-65
2021/09/05 00:31:33;;;;;;;41.87;25.87;;;14.30;99.90;;;;;;5036013;28;20225;-65
2021/09/05 00:34:01;;;;;;;39.40;23.93;;;14.20;99.90;;;;;;5031604;28;20663;-65
2021/09/05 00:36:26;;;;;;;42.03;24.33;;;14.10;99.90;;;;;;5035080;28;20186;-65
2021/09/05 00:38:52;;;;;;;39.70;25.23;;;14.10;99.90;;;;;;5031643;28;20562;-65
2021/09/05 00:41:18;;;;;;;36.77;23.47;;;14.00;99.90;;;;;;5036179;28;20738;-65
2021/09/05 00:44:07;;;;;;;40.63;24.00;;;14.00;99.90;;;;;;5031946;28;20298;-65
2021/09/05 00:46:35;;;;;;;37.23;23.73;;;14.00;99.90;;;;;;5031439;28;20175;-65
2021/09/05 00:49:02;;;;;;;39.67;25.00;;;14.00;99.90;;;;;;5039597;28;20182;-65
2021/09/05 00:51:30;;;;;;;43.73;26.20;;;14.00;99.90;;;;;;5046932;28;20202;-65
2021/09/05 00:53:58;;;;;;;39.13;24.10;;;14.00;99.90;;;;;;5037164;28;20171;-65
2021/09/05 00:56:26;;;;;;;37.70;25.07;;;14.00;99.90;;;;;;5050851;28;20208;-65
2021/09/05 00:58:54;;;;;;;47.90;24.97;;;14.00;99.90;;;;;;5037882;28;20266;-65
2021/09/05 01:01:21;;;;;;;40.47;24.77;;;14.00;99.90;;;;;;5037393;28;20370;-65
2021/09/05 01:03:47;;;;;;;41.70;25.43;;;14.10;99.90;;;;;;5032503;28;20179;-65
2021/09/05 01:06:13;;;;;;;39.77;24.57;;;14.10;99.90;;;;;;5046666;28;20251;-65
2021/09/05 01:08:38;;;;;;;38.53;24.50;;;14.10;99.90;;;;;;5051333;28;20194;-65
2021/09/05 01:11:04;;;;;;;38.33;23.13;;;14.00;99.90;;;;;;5053283;28;20236;-64
2021/09/05 01:13:30;;;;;;;37.57;23.57;;;14.00;99.90;;;;;;5035156;28;20215;-64
2021/09/05 01:15:56;;;;;;;37.87;23.93;;;14.00;99.90;;;;;;5045199;28;20170;-64
2021/09/05 01:18:22;;;;;;;39.63;24.17;;;14.10;99.90;;;;;;5045412;28;20262;-64
2021/09/05 01:20:47;;;;;;;37.50;25.03;;;14.00;99.90;;;;;;5035219;28;20179;-64
2021/09/05 01:23:13;;;;;;;35.00;23.27;;;14.00;99.90;;;;;;5042237;28;20566;-64
2021/09/05 01:25:40;;;;;;;36.60;23.97;;;14.00;99.90;;;;;;5038547;28;20257;-64
2021/09/05 01:28:11;;;;;;;37.10;24.10;;;14.00;99.90;;;;;;5053581;28;20651;-64
2021/09/05 01:30:37;;;;;;;43.33;25.57;;;13.90;99.90;;;;;;5050121;28;20201;-64
2021/09/05 01:33:03;;;;;;;42.83;24.57;;;14.00;99.90;;;;;;5040136;28;20605;-64
2021/09/05 01:35:29;;;;;;;44.97;26.47;;;13.90;99.90;;;;;;5045905;28;20183;-64
2021/09/05 01:37:54;;;;;;;43.67;25.60;;;13.80;99.90;;;;;;5054917;28;20182;-64
2021/09/05 01:40:20;;;;;;;39.07;25.27;;;13.80;99.90;;;;;;5044516;28;20251;-64
2021/09/05 01:42:45;;;;;;;39.67;23.27;;;13.80;99.90;;;;;;5034697;28;20621;-64
2021/09/05 01:45:11;;;;;;;38.10;25.43;;;13.70;99.90;;;;;;5042618;28;20253;-64
2021/09/05 01:47:36;;;;;;;44.90;25.53;;;13.70;99.90;;;;;;5054521;28;20163;-64
2021/09/05 01:50:02;;;;;;;41.73;23.90;;;13.70;99.90;;;;;;5047333;28;20180;-64
2021/09/05 01:52:28;;;;;;;39.20;24.10;;;13.70;99.90;;;;;;5042326;28;20222;-64
2021/09/05 01:54:53;;;;;;;35.83;23.40;;;13.70;99.90;;;;;;5040295;28;20171;-64
2021/09/05 01:57:19;;;;;;;40.20;23.93;;;13.60;99.90;;;;;;5042666;28;20174;-64
2021/09/05 01:59:44;;;;;;;38.83;23.70;;;13.70;99.90;;;;;;5051990;28;20219;-65
2021/09/05 02:02:10;;;;;;;43.57;26.10;;;13.60;99.90;;;;;;5047049;28;20209;-64
2021/09/05 02:04:36;;;;;;;43.57;23.67;;;13.60;99.90;;;;;;5052500;28;20190;-64
2021/09/05 02:07:01;;;;;;;40.50;24.67;;;13.60;99.90;;;;;;5054155;28;20177;-64
2021/09/05 02:09:27;;;;;;;36.90;23.13;;;13.60;99.90;;;;;;5044271;28;20257;-64
2021/09/05 02:11:52;;;;;;;39.20;24.10;;;13.60;99.90;;;;;;5039794;28;20329;-64
2021/09/05 02:14:18;;;;;;;40.00;24.30;;;13.60;99.90;;;;;;5053983;28;20538;-69
2021/09/05 02:16:45;;;;;;;44.47;25.70;;;13.50;99.90;;;;;;5048704;28;20179;-68
2021/09/05 02:19:10;;;;;;;43.83;24.90;;;13.50;99.90;;;;;;5052182;28;20569;-67
2021/09/05 02:21:36;;;;;;;45.77;25.17;;;13.50;99.90;;;;;;5049849;28;20183;-65
2021/09/05 02:24:02;;;;;;;46.93;25.27;;;13.40;99.90;;;;;;5037625;28;20183;-65
2021/09/05 02:26:27;;;;;;;46.20;26.80;;;13.40;99.90;;;;;;5054914;28;20651;-67
2021/09/05 02:28:53;;;;;;;48.93;26.20;;;13.30;99.90;;;;;;5055018;28;20174;-68
2021/09/05 02:31:19;;;;;;;50.57;26.33;;;13.30;99.90;;;;;;5044494;28;20195;-68
2021/09/05 02:33:44;;;;;;;41.63;24.80;;;13.20;99.90;;;;;;5033595;28;20511;-68
2021/09/05 02:36:10;;;;;;;43.87;25.80;;;13.10;99.90;;;;;;5036255;28;20176;-66
2021/09/05 02:38:35;;;;;;;48.67;26.70;;;13.10;99.90;;;;;;5033460;28;20179;-66
2021/09/05 02:41:01;;;;;;;43.83;24.40;;;13.00;99.90;;;;;;5045340;28;20183;-68
2021/09/05 02:43:27;;;;;;;51.83;26.27;;;13.00;99.90;;;;;;5034310;28;20221;-68
2021/09/05 02:45:52;;;;;;;50.67;26.93;;;13.00;99.90;;;;;;5048151;28;20675;-68
2021/09/05 02:48:18;;;;;;;42.93;25.43;;;13.00;99.90;;;;;;5054643;28;20663;-67
2021/09/05 02:50:43;;;;;;;48.17;26.13;;;13.00;99.90;;;;;;5046804;28;20266;-70
2021/09/05 02:53:09;;;;;;;41.57;25.30;;;13.00;99.90;;;;;;5042548;28;20285;-68
2021/09/05 02:55:35;;;;;;;44.03;25.97;;;13.00;99.90;;;;;;5034981;28;20649;-66
2021/09/05 02:58:00;;;;;;;52.40;26.70;;;13.10;99.90;;;;;;5040405;28;20261;-67
2021/09/05 03:00:26;;;;;;;48.97;27.43;;;13.10;99.90;;;;;;5045113;28;20183;-67
2021/09/05 03:02:52;;;;;;;46.90;26.40;;;13.20;99.90;;;;;;5053118;28;20628;-68
2021/09/05 03:05:17;;;;;;;44.80;24.83;;;13.10;99.90;;;;;;5044670;28;20173;-66
2021/09/05 03:07:43;;;;;;;46.33;25.80;;;13.20;99.90;;;;;;5034799;28;20937;-67
2021/09/05 03:10:09;;;;;;;47.20;24.57;;;13.10;99.90;;;;;;5046015;28;20174;-66
2021/09/05 03:12:35;;;;;;;48.30;25.03;;;13.10;99.90;;;;;;5050618;28;20210;-67
2021/09/05 03:15:00;;;;;;;43.50;23.73;;;13.10;99.90;;;;;;5035561;28;20179;-68
2021/09/05 03:17:27;;;;;;;40.47;23.53;;;13.00;99.90;;;;;;5052129;28;20185;-67
2021/09/05 03:19:53;;;;;;;46.23;24.73;;;13.00;99.90;;;;;;5052754;28;20640;-66
2021/09/05 03:22:18;;;;;;;46.90;25.70;;;13.00;99.90;;;;;;5041919;28;20199;-69
2021/09/05 03:24:44;;;;;;;41.87;24.20;;;13.00;99.90;;;;;;5054062;28;20541;-68
2021/09/05 03:27:09;;;;;;;51.00;24.87;;;13.00;99.90;;;;;;5039746;28;20183;-66
2021/09/05 03:29:35;;;;;;;41.73;24.77;;;12.90;99.90;;;;;;5033299;28;20606;-68
2021/09/05 03:32:01;;;;;;;51.60;25.87;;;12.90;99.90;;;;;;5041923;28;20331;-69
2021/09/05 03:34:26;;;;;;;47.57;25.40;;;12.90;99.90;;;;;;5048420;28;20270;-69
2021/09/05 03:36:52;;;;;;;52.73;27.53;;;12.90;99.90;;;;;;5054073;28;20166;-68
2021/09/05 03:39:18;;;;;;;53.40;27.37;;;12.90;99.90;;;;;;5037953;28;20596;-66
2021/09/05 03:41:43;;;;;;;46.33;23.97;;;12.90;99.90;;;;;;5042149;28;20214;-70
2021/09/05 03:44:09;;;;;;;42.20;24.87;;;12.90;99.90;;;;;;5034112;28;20176;-67
2021/09/05 03:46:34;;;;;;;46.83;25.97;;;12.90;99.90;;;;;;5039143;28;20194;-63
2021/09/05 03:49:00;;;;;;;41.83;24.73;;;12.90;99.90;;;;;;5052280;28;20202;-63
2021/09/05 03:51:25;;;;;;;47.80;24.70;;;12.90;99.90;;;;;;5037613;28;20199;-64
2021/09/05 03:53:51;;;;;;;41.87;23.83;;;12.90;99.90;;;;;;5038763;28;20171;-64
2021/09/05 03:56:18;;;;;;;42.80;24.30;;;12.90;99.90;;;;;;5031953;28;20653;-63
2021/09/05 03:58:43;;;;;;;42.90;23.63;;;12.90;99.90;;;;;;5043557;28;20628;-64
2021/09/05 04:01:09;;;;;;;39.67;23.13;;;12.80;99.90;;;;;;5040659;28;20198;-64
2021/09/05 04:03:35;;;;;;;41.73;23.77;;;12.70;99.90;;;;;;5051823;28;20203;-62
2021/09/05 04:06:02;;;;;;;44.77;24.10;;;12.80;99.90;;;;;;5049890;28;20564;-63
2021/09/05 04:08:38;;;;;;;52.90;27.70;;;12.70;99.90;;;;;;5048419;28;20187;-63
2021/09/05 04:11:03;;;;;;;50.03;24.57;;;12.70;99.90;;;;;;5034266;28;20202;-64
2021/09/05 04:13:29;;;;;;;42.47;23.03;;;12.60;99.90;;;;;;5047830;28;20198;-62
2021/09/05 04:15:54;;;;;;;50.40;24.77;;;12.60;99.90;;;;;;5035637;28;20179;-63
2021/09/05 04:18:20;;;;;;;46.10;25.97;;;12.60;99.90;;;;;;5031687;28;20237;-64
2021/09/05 04:20:46;;;;;;;50.83;24.50;;;12.60;99.90;;;;;;5047015;28;20179;-64
2021/09/05 04:23:11;;;;;;;49.30;26.40;;;12.50;99.90;;;;;;5042432;28;20672;-64
2021/09/05 04:25:37;;;;;;;42.47;23.73;;;12.50;99.90;;;;;;5051620;28;20185;-63
2021/09/05 04:28:03;;;;;;;47.90;25.10;;;12.50;99.90;;;;;;5039918;28;20182;-64
2021/09/05 04:30:28;;;;;;;47.50;25.63;;;12.50;99.90;;;;;;5039927;28;20292;-64
2021/09/05 04:32:54;;;;;;;42.40;23.70;;;12.50;99.90;;;;;;5049814;28;20241;-63
2021/09/05 04:35:19;;;;;;;43.50;24.17;;;12.50;99.90;;;;;;5034307;28;20199;-62
2021/09/05 04:37:45;;;;;;;48.33;23.83;;;12.50;99.90;;;;;;5031891;28;20195;-63
2021/09/05 04:40:11;;;;;;;39.90;24.70;;;12.40;99.90;;;;;;5039095;28;20266;-63
2021/09/05 04:42:36;;;;;;;42.07;23.47;;;12.40;99.90;;;;;;5046780;28;20220;-64
2021/09/05 04:45:03;;;;;;;42.80;23.07;;;12.40;99.90;;;;;;5038004;28;20202;-63
2021/09/05 04:47:29;;;;;;;37.13;23.20;;;12.40;99.90;;;;;;5031276;28;20586;-63
2021/09/05 04:49:54;;;;;;;45.67;23.03;;;12.40;99.90;;;;;;5037787;28;20182;-63
2021/09/05 04:52:20;;;;;;;45.83;24.27;;;12.40;99.90;;;;;;5046053;28;20230;-63
2021/09/05 04:54:46;;;;;;;42.30;24.23;;;12.40;99.90;;;;;;5044566;28;20198;-62
2021/09/05 04:57:11;;;;;;;41.57;23.90;;;12.40;99.90;;;;;;5043889;28;20198;-63
2021/09/05 04:59:37;;;;;;;37.43;22.40;;;12.40;99.90;;;;;;5040711;28;20182;-63
2021/09/05 05:02:03;;;;;;;39.37;22.57;;;12.40;99.90;;;;;;5046095;28;20552;-62
2021/09/05 05:04:28;;;;;;;44.47;23.90;;;12.40;99.90;;;;;;5040969;28;20261;-64
2021/09/05 05:06:54;;;;;;;42.70;23.60;;;12.40;99.90;;;;;;5043978;28;20183;-63
2021/09/05 05:09:19;;;;;;;40.97;23.50;;;12.40;99.90;;;;;;5048921;28;20604;-64
2021/09/05 05:11:45;;;;;;;39.90;22.27;;;12.50;99.90;;;;;;5043777;28;20273;-64
2021/09/05 05:14:12;;;;;;;42.77;23.40;;;12.40;99.90;;;;;;5040854;28;20261;-63
2021/09/05 05:16:38;;;;;;;45.53;23.63;;;12.40;99.90;;;;;;5046027;28;20175;-62
2021/09/05 05:19:04;;;;;;;48.33;24.60;;;12.50;99.90;;;;;;5046960;28;20187;-63
2021/09/05 05:21:30;;;;;;;48.17;24.30;;;12.50;99.90;;;;;;5034262;28;20187;-63
2021/09/05 05:23:56;;;;;;;38.80;23.47;;;12.60;99.90;;;;;;5039331;28;20187;-63
2021/09/05 05:26:23;;;;;;;45.90;24.17;;;12.60;99.90;;;;;;5034821;28;20672;-61
2021/09/05 05:28:48;;;;;;;45.87;24.93;;;12.70;99.90;;;;;;5051115;28;20254;-64
2021/09/05 05:31:14;;;;;;;44.57;24.27;;;12.70;99.90;;;;;;5046489;28;20774;-64
2021/09/05 05:33:40;;;;;;;39.93;22.73;;;12.80;99.90;;;;;;5031010;28;20220;-64
2021/09/05 05:36:06;;;;;;;35.50;21.80;;;12.90;99.90;;;;;;5032077;28;20672;-64
2021/09/05 05:38:31;;;;;;;38.23;23.30;;;13.00;99.90;;;;;;5030928;28;20521;-63
2021/09/05 05:40:57;;;;;;;32.60;21.10;;;13.00;99.90;;;;;;5041712;28;20227;-65
2021/09/05 05:43:23;;;;;;;46.17;24.00;;;13.10;99.90;;;;;;5030857;28;20537;-65
2021/09/05 05:45:48;;;;;;;43.23;24.23;;;13.20;99.90;;;;;;5032079;28;20361;-64
2021/09/05 05:48:14;;;;;;;40.67;23.57;;;13.30;99.90;;;;;;5037411;28;20171;-63
2021/09/05 05:50:42;;;;;;;45.17;24.73;;;13.40;99.90;;;;;;5045109;28;20728;-64
2021/09/05 05:53:08;;;;;;;34.83;22.50;;;13.50;99.90;;;;;;5041229;28;20680;-64
2021/09/05 05:55:34;;;;;;;34.93;23.30;;;13.60;99.90;;;;;;5030695;28;20571;-64
2021/09/05 05:58:00;;;;;;;35.53;22.27;;;13.60;99.90;;;;;;5035704;28;20214;-64
2021/09/05 06:00:26;;;;;;;38.33;24.10;;;13.70;99.90;;;;;;5053856;28;20568;-64
2021/09/05 06:02:53;;;;;;;35.50;23.13;;;13.80;99.90;;;;;;5038838;28;20199;-64
2021/09/05 06:05:19;;;;;;;40.13;24.03;;;13.80;99.90;;;;;;5046621;28;20549;-64
2021/09/05 06:07:45;;;;;;;38.23;23.17;;;13.90;99.90;;;;;;5053872;28;20206;-63
2021/09/05 06:10:10;;;;;;;34.67;23.93;;;14.10;99.90;;;;;;5040561;28;20199;-64
2021/09/05 06:12:36;;;;;;;33.80;23.37;;;14.20;99.90;;;;;;5042109;28;20207;-65
2021/09/05 06:15:02;;;;;;;38.57;24.43;;;14.30;99.90;;;;;;5045743;28;20218;-64
2021/09/05 06:17:28;;;;;;;34.87;22.77;;;14.40;99.90;;;;;;5051857;28;20197;-64
2021/09/05 06:19:54;;;;;;;34.80;23.27;;;14.80;99.90;;;;;;5048928;28;20171;-65
2021/09/05 06:22:19;;;;;;;30.17;21.73;;;15.30;99.90;;;;;;5041881;28;20221;-63
2021/09/05 06:24:45;;;;;;;24.93;20.03;;;15.70;99.90;;;;;;5033836;28;20179;-65
2021/09/05 06:27:11;;;;;;;23.10;18.37;;;16.20;99.90;;;;;;5041701;28;20175;-65
2021/09/05 06:29:36;;;;;;;30.80;19.03;;;16.60;99.90;;;;;;5051392;28;21285;-64
2021/09/05 06:32:02;;;;;;;21.83;16.67;;;17.10;99.90;;;;;;5037621;28;20242;-65
2021/09/05 06:34:28;;;;;;;23.43;16.93;;;17.50;99.90;;;;;;5033154;28;20187;-65
2021/09/05 06:36:55;;;;;;;22.87;16.13;;;18.00;99.90;;;;;;5033583;28;20171;-65
2021/09/05 06:39:21;;;;;;;19.70;16.13;;;18.30;99.90;;;;;;5032475;28;20172;-65
2021/09/05 06:41:46;;;;;;;18.87;16.27;;;18.60;99.90;;;;;;5038779;28;20209;-65
2021/09/05 06:44:12;;;;;;;18.40;15.80;;;19.00;99.90;;;;;;5053297;28;20175;-64
2021/09/05 06:46:37;;;;;;;20.03;16.47;;;19.50;99.90;;;;;;5034265;28;20703;-64
2021/09/05 06:49:03;;;;;;;18.23;16.10;;;19.70;99.90;;;;;;5034507;28;20194;-65
2021/09/05 06:51:29;;;;;;;17.27;15.33;;;19.90;99.90;;;;;;5039328;28;20550;-65
2021/09/05 06:53:55;;;;;;;17.90;14.83;;;20.20;99.90;;;;;;5046448;28;20174;-66
2021/09/05 06:56:20;;;;;;;21.45;15.98;;;20.60;99.90;;;;;;5051643;28;20174;-64
2021/09/05 06:58:46;;;;;;;17.45;14.52;;;21.00;99.90;;;;;;5046643;28;20197;-65
2021/09/05 07:01:12;;;;;;;19.48;14.95;;;21.40;99.90;;;;;;5033079;28;20245;-65
2021/09/05 07:03:37;;;;;;;17.92;14.30;;;21.60;99.90;;;;;;5052335;28;20202;-65
2021/09/05 07:06:03;;;;;;;15.63;13.45;;;21.90;99.90;;;;;;5039609;28;20233;-67
2021/09/05 07:08:28;;;;;;;18.05;14.82;;;22.20;99.90;;;;;;5040890;28;20215;-66
2021/09/05 07:10:54;;;;;;;16.63;14.15;;;22.40;99.90;;;;;;5051478;28;20194;-64
2021/09/05 07:13:20;;;;;;;19.15;15.77;;;22.30;99.90;;;;;;5035778;28;20269;-66
2021/09/05 07:15:45;;;;;;;18.30;14.68;;;21.80;99.90;;;;;;5039628;28;20176;-65
2021/09/05 07:18:11;;;;;;;18.35;15.52;;;21.80;99.90;;;;;;5044633;28;20180;-64
2021/09/05 07:20:36;;;;;;;16.92;13.68;;;21.90;99.90;;;;;;5041165;28;20509;-65
2021/09/05 07:23:03;;;;;;;16.30;14.60;;;22.10;99.90;;;;;;5049849;28;20195;-65
2021/09/05 07:25:30;;;;;;;18.77;15.25;;;22.30;99.90;;;;;;5032306;28;20183;-66
2021/09/05 07:27:56;;;;;;;16.55;14.45;;;22.20;99.90;;;;;;5033600;28;20168;-66
2021/09/05 07:30:22;;;;;;;15.88;14.18;;;22.60;99.90;;;;;;5052069;28;20174;-66
2021/09/05 07:32:48;;;;;;;16.65;14.13;;;22.90;99.90;;;;;;5051014;28;20215;-66
2021/09/05 07:35:13;;;;;;;15.80;14.20;;;23.10;99.90;;;;;;5031219;28;20183;-66
2021/09/05 07:37:43;;;;;;;16.33;14.05;;;23.30;99.90;;;;;;5032242;28;20222;-66
2021/09/05 07:40:10;;;;;;;16.65;14.10;;;23.30;99.90;;;;;;5031871;28;20749;-65
2021/09/05 07:42:35;;;;;;;15.55;13.95;;;23.30;99.90;;;;;;5039475;28;20217;-65
2021/09/05 07:45:01;;;;;;;17.23;13.63;;;23.10;99.90;;;;;;5052534;28;20178;-65
2021/09/05 07:47:27;;;;;;;17.83;14.10;;;23.20;99.90;;;;;;5046054;28;20195;-66
2021/09/05 07:49:52;;;;;;;16.42;14.73;;;23.00;99.90;;;;;;5032125;28;20254;-66
2021/09/05 07:52:18;;;;;;;18.25;14.15;;;23.10;99.90;;;;;;5035373;28;20203;-65
2021/09/05 07:54:43;;;;;;;16.13;13.40;;;23.30;99.90;;;;;;5050713;28;20182;-65
2021/09/05 07:57:09;;;;;;;15.40;13.80;;;23.60;99.90;;;;;;5049373;28;20178;-65
2021/09/05 07:59:35;;;;;;;18.00;14.82;;;23.90;99.90;;;;;;5031543;28;20209;-66
2021/09/05 08:02:01;;;;;;;15.95;14.13;;;24.10;99.90;;;;;;5030924;28;20218;-66
2021/09/05 08:04:27;;;;;;;18.52;14.50;;;23.90;99.90;;;;;;5051721;28;20258;-66
2021/09/05 08:06:52;;;;;;;15.95;13.98;;;24.00;99.90;;;;;;5050470;28;20660;-65
2021/09/05 08:09:18;;;;;;;19.60;14.18;;;24.30;99.90;;;;;;5032721;28;20659;-66
2021/09/05 08:11:43;;;;;;;15.32;13.25;;;24.60;99.90;;;;;;5041821;28;20336;-65
2021/09/05 08:14:09;;;;;;;16.88;14.25;;;24.70;99.90;;;;;;5050606;28;20175;-66
2021/09/05 08:16:37;;;;;;;15.00;13.32;;;24.60;99.90;;;;;;5031892;28;20205;-65
2021/09/05 08:19:03;;;;;;;15.20;12.20;;;24.50;99.90;;;;;;5030560;28;20163;-66
2021/09/05 08:21:29;;;;;;;13.30;11.98;;;25.00;99.90;;;;;;5049701;28;20217;-66
2021/09/05 08:23:54;;;;;;;14.80;12.88;;;25.20;99.90;;;;;;5051184;28;20202;-66
2021/09/05 08:26:20;;;;;;;15.85;13.90;;;25.50;99.90;;;;;;5033782;28;20179;-65
2021/09/05 08:28:46;;;;;;;13.57;12.10;;;25.90;99.90;;;;;;5041680;28;20183;-65
2021/09/05 08:31:12;;;;;;;13.73;12.02;;;26.30;99.90;;;;;;5050170;28;20245;-65
2021/09/05 08:33:38;;;;;;;13.32;11.93;;;26.70;99.90;;;;;;5037918;28;20195;-65
2021/09/05 08:36:04;;;;;;;13.73;12.32;;;26.70;99.90;;;;;;5031459;28;20178;-65
2021/09/05 08:38:31;;;;;;;13.07;11.77;;;26.70;99.90;;;;;;5042995;28;20309;-66
2021/09/05 08:40:57;;;;;;;14.50;12.95;;;26.70;99.90;;;;;;5044264;28;20176;-66
2021/09/05 08:43:22;;;;;;;14.77;12.23;;;26.90;99.90;;;;;;5031122;28;20218;-65
2021/09/05 08:45:49;;;;;;;12.60;11.30;;;26.80;99.90;;;;;;5034567;28;20205;-65
2021/09/05 08:48:19;;;;;;;15.48;12.85;;;27.20;99.90;;;;;;5051073;28;20179;-65
2021/09/05 08:50:54;;;;;;;13.25;11.85;;;27.20;99.90;;;;;;5048069;28;20174;-65
2021/09/05 08:53:20;;;;;;;14.75;13.23;;;27.20;99.90;;;;;;5031285;28;20200;-65
2021/09/05 08:55:46;;;;;;;16.55;13.13;;;27.60;99.90;;;;;;5032227;28;20185;-65
2021/09/05 08:58:12;;;;;;;13.32;11.93;;;27.80;99.90;;;;;;5046170;28;20185;-65
2021/09/05 09:00:38;;;;;;;14.57;12.23;;;28.20;99.90;;;;;;5048226;28;20182;-65
2021/09/05 09:03:05;;;;;;;15.43;12.45;;;28.40;99.90;;;;;;5042990;28;20634;-66
2021/09/05 09:05:37;;;;;;;13.68;12.38;;;28.50;99.90;;;;;;5030982;28;20534;-65
2021/09/05 09:08:11;;;;;;;15.23;11.38;;;28.60;99.90;;;;;;5047398;28;20190;-65
2021/09/05 09:10:48;;;;;;;13.20;11.30;;;28.70;99.90;;;;;;5050817;28;20224;-65
2021/09/05 09:13:25;;;;;;;13.27;11.88;;;29.00;99.90;;;;;;5033282;28;20207;-65
2021/09/05 09:15:51;;;;;;;14.05;11.75;;;29.10;99.90;;;;;;5031296;28;20189;-66
2021/09/05 09:18:24;;;;;;;12.68;11.05;;;29.10;99.90;;;;;;5047920;28;20175;-65
2021/09/05 09:20:50;;;;;;;16.52;13.02;;;29.60;99.90;;;;;;5050669;28;20175;-66
2021/09/05 09:23:21;;;;;;;13.65;12.25;;;29.50;99.90;;;;;;5034005;28;20285;-66
2021/09/05 09:26:09;;;;;;;14.23;12.30;;;29.30;99.90;;;;;;5030882;28;20656;-65
2021/09/05 09:28:45;;;;;;;13.50;12.10;;;29.00;99.90;;;;;;5049476;28;20186;-66
2021/09/05 09:31:23;;;;;;;13.00;11.77;;;28.90;99.90;;;;;;5052134;28;20233;-65
2021/09/05 09:33:54;;;;;;;12.07;10.85;;;29.40;99.90;;;;;;5034554;28;20189;-66
2021/09/05 09:36:25;;;;;;;13.23;11.93;;;29.40;99.90;;;;;;5034808;28;20172;-66
2021/09/05 09:38:58;;;;;;;14.73;13.23;;;29.40;99.90;;;;;;5053088;28;20174;-66
2021/09/05 09:41:28;;;;;;;13.05;11.75;;;29.60;99.90;;;;;;5053942;28;20183;-66
2021/09/05 09:44:06;;;;;;;13.57;11.27;;;30.00;99.90;;;;;;5034782;28;20187;-66
2021/09/05 09:46:34;;;;;;;12.82;11.63;;;30.60;99.90;;;;;;5034277;28;20179;-66
2021/09/05 09:49:02;;;;;;;13.40;12.02;;;31.10;99.90;;;;;;5040931;28;20187;-66
2021/09/05 09:51:28;;;;;;;16.38;12.52;;;31.20;99.90;;;;;;5053642;28;20194;-66
2021/09/05 09:53:54;;;;;;;13.30;12.02;;;31.30;99.90;;;;;;5054247;28;20174;-66
2021/09/05 09:56:21;;;;;;;13.65;12.27;;;31.50;99.90;;;;;;5036158;28;20201;-66
2021/09/05 09:58:48;;;;;;;12.23;11.05;;;31.80;99.90;;;;;;5038206;28;20661;-66
2021/09/05 10:01:23;;;;;;;14.70;13.13;;;32.00;99.90;;;;;;5033771;28;20719;-65
2021/09/05 10:03:50;;;;;;;13.23;11.93;;;31.90;99.90;;;;;;5049697;28;20182;-66
2021/09/05 10:06:16;;;;;;;12.65;11.48;;;31.80;99.90;;;;;;5053952;28;20171;-66
2021/09/05 10:08:46;;;;;;;12.50;11.23;;;32.00;99.90;;;;;;5039273;28;20184;-66
2021/09/05 10:11:16;;;;;;;14.38;12.48;;;32.20;99.90;;;;;;5032185;28;20203;-66
2021/09/05 10:13:43;;;;;;;13.95;12.48;;;31.80;99.90;;;;;;5047519;28;20210;-66
2021/09/05 10:16:11;;;;;;;13.57;12.07;;;31.80;99.90;;;;;;5052676;28;20584;-66
2021/09/05 10:18:44;;;;;;;12.82;11.52;;;31.70;99.90;;;;;;5034119;28;20628;-66
2021/09/05 10:21:13;;;;;;;13.40;11.93;;;31.80;99.90;;;;;;5033281;28;20175;-66
2021/09/05 10:23:44;;;;;;;13.27;12.05;;;31.80;99.90;;;;;;5053620;28;20569;-66
2021/09/05 10:26:12;;;;;;;14.30;11.90;;;32.00;99.90;;;;;;5053410;28;20174;-66
2021/09/05 10:28:42;;;;;;;13.77;12.07;;;31.80;99.90;;;;;;5053532;28;20183;-66
2021/09/05 10:31:10;;;;;;;14.30;11.68;;;31.80;99.90;;;;;;5053117;28;20770;-66
2021/09/05 10:33:38;;;;;;;14.18;12.57;;;32.20;99.90;;;;;;5032664;28;20203;-66
2021/09/05 10:36:15;;;;;;;12.13;10.93;;;32.40;99.90;;;;;;5033549;28;20552;-66
2021/09/05 10:38:42;;;;;;;14.70;11.70;;;32.60;99.90;;;;;;5052778;28;20263;-66
2021/09/05 10:41:09;;;;;;;12.73;11.43;;;32.20;99.90;;;;;;5053129;28;20533;-66
2021/09/05 10:43:47;;;;;;;11.93;10.73;;;32.40;99.90;;;;;;5034830;28;20215;-66
2021/09/05 10:46:24;;;;;;;12.13;10.93;;;32.50;99.90;;;;;;5033156;28;20179;-66
2021/09/05 10:48:52;;;;;;;10.68;9.68;;;32.60;99.90;;;;;;5052624;28;20196;-66
2021/09/05 10:51:25;;;;;;;11.68;10.52;;;32.00;99.90;;;;;;5042426;28;20692;-66
2021/09/05 10:54:09;;;;;;;12.70;10.85;;;31.80;99.90;;;;;;5033566;28;20549;-66
2021/09/05 10:56:35;;;;;;;12.63;11.27;;;31.90;99.90;;;;;;5042975;28;20174;-66
2021/09/05 10:59:04;;;;;;;12.15;10.95;;;32.30;99.90;;;;;;5031990;28;20175;-66
2021/09/05 11:01:33;;;;;;;11.25;10.15;;;32.20;99.90;;;;;;5043913;28;20179;-66
2021/09/05 11:04:14;;;;;;;11.70;10.60;;;31.80;99.90;;;;;;5052939;28;20162;-66
2021/09/05 11:06:42;;;;;;;11.43;10.30;;;31.70;99.90;;;;;;5035146;28;20542;-66
2021/09/05 11:09:21;;;;;;;11.95;10.52;;;31.70;99.90;;;;;;5033131;28;20175;-66
2021/09/05 11:12:07;;;;;;;12.95;11.48;;;31.80;99.90;;;;;;5050558;28;20198;-66
2021/09/05 11:14:48;;;;;;;12.30;10.98;;;31.30;99.90;;;;;;5052888;28;20182;-66
2021/09/05 11:17:15;;;;;;;13.88;10.30;;;31.20;99.90;;;;;;5032623;28;20224;-66
2021/09/05 11:19:56;;;;;;;10.60;9.63;;;31.30;99.90;;;;;;5030562;28;20172;-65
2021/09/05 11:22:37;;;;;;;11.57;10.32;;;31.30;99.90;;;;;;5052746;28;20618;-66
2021/09/05 11:25:08;;;;;;;12.18;10.10;;;31.20;99.90;;;;;;5049672;28;20178;-66
2021/09/05 11:27:35;;;;;;;11.00;9.90;;;30.80;99.90;;;;;;5032674;28;20183;-66
2021/09/05 11:30:03;;;;;;;11.00;10.00;;;30.80;99.90;;;;;;5033940;28;20526;-66
2021/09/05 11:32:29;;;;;;;11.98;10.75;;;31.10;99.90;;;;;;5043704;28;20218;-66
2021/09/05 11:34:56;;;;;;;10.88;9.75;;;31.00;99.90;;;;;;5043510;28;20171;-66
2021/09/05 11:37:33;;;;;;;10.20;9.30;;;31.10;99.90;;;;;;5032595;28;20621;-66
2021/09/05 11:40:08;;;;;;;10.82;9.80;;;31.30;99.90;;;;;;5032790;28;20221;-66
2021/09/05 11:42:34;;;;;;;10.82;9.73;;;31.40;99.90;;;;;;5032635;28;20218;-66
2021/09/05 11:45:09;;;;;;;11.57;10.38;;;31.80;99.90;;;;;;5032901;28;20198;-66
2021/09/05 11:47:35;;;;;;;10.57;9.48;;;31.80;99.90;;;;;;5031981;28;20171;-66
2021/09/05 11:50:02;;;;;;;9.38;8.48;;;32.20;99.90;;;;;;5050809;28;20189;-66
2021/09/05 11:52:31;;;;;;;11.25;10.23;;;32.60;99.90;;;;;;5050562;28;20217;-66
2021/09/05 11:55:15;;;;;;;10.75;9.80;;;32.90;99.90;;;;;;5031968;28;20172;-66
2021/09/05 11:57:54;;;;;;;10.63;9.73;;;33.30;99.90;;;;;;5032317;28;20555;-66
2021/09/05 12:00:29;;;;;;;10.60;9.57;;;33.00;99.90;;;;;;5045043;28;20198;-66
2021/09/05 12:02:55;;;;;;;10.55;9.63;;;32.90;99.90;;;;;;5050259;28;20323;-66
2021/09/05 12:05:21;;;;;;;10.07;9.07;;;32.90;99.90;;;;;;5045478;28;20221;-66
2021/09/05 12:07:48;;;;;;;9.70;8.88;;;32.80;99.90;;;;;;5050141;28;20179;-66
2021/09/05 12:10:25;;;;;;;11.05;9.60;;;32.70;99.90;;;;;;5031492;28;20190;-66
2021/09/05 12:13:07;;;;;;;9.82;8.93;;;32.70;99.90;;;;;;5031791;28;20211;-66
2021/09/05 12:15:52;;;;;;;10.82;9.82;;;32.80;99.90;;;;;;5051624;28;20182;-66
2021/09/05 12:18:26;;;;;;;9.48;8.52;;;32.70;99.90;;;;;;5048494;28;20233;-66
2021/09/05 12:20:56;;;;;;;11.20;8.60;;;33.00;99.90;;;;;;5031531;28;20183;-66
2021/09/05 12:23:24;;;;;;;10.45;9.45;;;32.80;99.90;;;;;;5034161;28;20240;-65
2021/09/05 12:25:51;;;;;;;10.20;9.27;;;32.30;99.90;;;;;;5051757;28;20641;-66
2021/09/05 12:28:34;;;;;;;10.55;9.48;;;31.70;99.90;;;;;;5049604;28;20181;-66
2021/09/05 12:31:04;;;;;;;10.75;9.68;;;31.50;99.90;;;;;;5029933;28;20224;-66